sensor_id;sensor_type;location;lat;lon;timestamp;P1;durP1;ratioP1;P2;durP2;ratioP2
22904;SDS011;11619;50.140;8.518;2023-06-22T00:01:19;6.32;;;5.82;;
22904;SDS011;11619;50.140;8.518;2023-06-22T00:03:47;6.55;;;5.95;;
22904;SDS011;11619;50.140;8.518;2023-06-22T00:06:14;6.38;;;5.85;;
22904;SDS011;11619;50.140;8.518;2023-06-22T00:08:40;6.20;;;5.70;;
22904;SDS011;11619;50.140;8.518;2023-06-22T00:11:07;5.90;;;5.20;;
22904;SDS011;11619;50.140;8.518;2023-06-22T00:13:34;6.18;;;5.68;;
22904;SDS011;11619;50.140;8.518;2023-06-22T00:16:00;6.25;;;5.65;;
22904;SDS011;11619;50.140;8.518;2023-06-22T00:18:27;6.18;;;5.68;;
22904;SDS011;11619;50.140;8.518;2023-06-22T00:20:54;8.13;;;6.55;;
22904;SDS011;11619;50.140;8.518;2023-06-22T00:23:23;6.78;;;6.10;;
22904;SDS011;11619;50.140;8.518;2023-06-22T00:25:50;7.07;;;6.40;;
22904;SDS011;11619;50.140;8.518;2023-06-22T00:28:16;6.38;;;5.72;;
22904;SDS011;11619;50.140;8.518;2023-06-22T00:30:43;6.40;;;5.78;;
22904;SDS011;11619;50.140;8.518;2023-06-22T00:33:09;6.55;;;5.97;;
22904;SDS011;11619;50.140;8.518;2023-06-22T00:35:36;6.38;;;5.88;;
22904;SDS011;11619;50.140;8.518;2023-06-22T00:38:03;6.97;;;6.30;;
22904;SDS011;11619;50.140;8.518;2023-06-22T00:40:31;6.90;;;6.30;;
22904;SDS011;11619;50.140;8.518;2023-06-22T00:42:58;6.38;;;5.82;;
22904;SDS011;11619;50.140;8.518;2023-06-22T00:45:25;5.82;;;5.32;;
22904;SDS011;11619;50.140;8.518;2023-06-22T00:47:52;6.32;;;5.80;;
22904;SDS011;11619;50.140;8.518;2023-06-22T00:50:20;6.05;;;5.55;;
22904;SDS011;11619;50.140;8.518;2023-06-22T00:52:50;6.55;;;5.95;;
22904;SDS011;11619;50.140;8.518;2023-06-22T00:55:18;6.93;;;6.32;;
22904;SDS011;11619;50.140;8.518;2023-06-22T00:57:46;6.90;;;6.22;;
22904;SDS011;11619;50.140;8.518;2023-06-22T01:00:13;5.95;;;5.45;;
22904;SDS011;11619;50.140;8.518;2023-06-22T01:02:42;5.85;;;5.38;;
22904;SDS011;11619;50.140;8.518;2023-06-22T01:05:12;6.00;;;5.50;;
22904;SDS011;11619;50.140;8.518;2023-06-22T01:07:47;6.47;;;5.85;;
22904;SDS011;11619;50.140;8.518;2023-06-22T01:13:15;6.55;;;5.95;;
22904;SDS011;11619;50.140;8.518;2023-06-22T01:15:58;7.03;;;6.38;;
22904;SDS011;11619;50.140;8.518;2023-06-22T01:18:28;7.13;;;6.43;;
22904;SDS011;11619;50.140;8.518;2023-06-22T01:20:56;7.47;;;6.72;;
22904;SDS011;11619;50.140;8.518;2023-06-22T01:23:33;7.22;;;6.55;;
22904;SDS011;11619;50.140;8.518;2023-06-22T01:26:17;6.63;;;5.93;;
22904;SDS011;11619;50.140;8.518;2023-06-22T01:28:47;7.97;;;7.07;;
22904;SDS011;11619;50.140;8.518;2023-06-22T01:31:18;7.03;;;6.18;;
22904;SDS011;11619;50.140;8.518;2023-06-22T01:33:49;6.72;;;6.13;;
22904;SDS011;11619;50.140;8.518;2023-06-22T01:36:20;7.03;;;6.43;;
22904;SDS011;11619;50.140;8.518;2023-06-22T01:38:47;7.70;;;6.85;;
22904;SDS011;11619;50.140;8.518;2023-06-22T01:41:14;7.70;;;6.93;;
22904;SDS011;11619;50.140;8.518;2023-06-22T01:43:42;8.07;;;7.35;;
22904;SDS011;11619;50.140;8.518;2023-06-22T01:46:09;7.60;;;6.90;;
22904;SDS011;11619;50.140;8.518;2023-06-22T01:48:36;7.55;;;6.85;;
22904;SDS011;11619;50.140;8.518;2023-06-22T01:51:03;7.45;;;6.85;;
22904;SDS011;11619;50.140;8.518;2023-06-22T01:53:29;8.15;;;7.47;;
22904;SDS011;11619;50.140;8.518;2023-06-22T01:55:56;7.97;;;7.18;;
22904;SDS011;11619;50.140;8.518;2023-06-22T01:58:25;9.02;;;7.65;;
22904;SDS011;11619;50.140;8.518;2023-06-22T02:00:55;7.50;;;6.90;;
22904;SDS011;11619;50.140;8.518;2023-06-22T02:03:30;9.02;;;7.82;;
22904;SDS011;11619;50.140;8.518;2023-06-22T02:06:01;8.98;;;8.18;;
22904;SDS011;11619;50.140;8.518;2023-06-22T02:08:32;9.18;;;7.70;;
22904;SDS011;11619;50.140;8.518;2023-06-22T02:11:20;8.52;;;7.72;;
22904;SDS011;11619;50.140;8.518;2023-06-22T02:13:47;9.18;;;8.45;;
22904;SDS011;11619;50.140;8.518;2023-06-22T02:16:14;9.00;;;8.20;;
22904;SDS011;11619;50.140;8.518;2023-06-22T02:18:49;8.80;;;7.90;;
22904;SDS011;11619;50.140;8.518;2023-06-22T02:21:19;8.65;;;7.85;;
22904;SDS011;11619;50.140;8.518;2023-06-22T02:23:46;8.18;;;7.43;;
22904;SDS011;11619;50.140;8.518;2023-06-22T02:26:13;8.40;;;7.45;;
22904;SDS011;11619;50.140;8.518;2023-06-22T02:28:41;8.00;;;7.28;;
22904;SDS011;11619;50.140;8.518;2023-06-22T02:31:08;8.55;;;7.75;;
22904;SDS011;11619;50.140;8.518;2023-06-22T02:33:34;8.82;;;8.00;;
22904;SDS011;11619;50.140;8.518;2023-06-22T02:36:01;9.25;;;8.45;;
22904;SDS011;11619;50.140;8.518;2023-06-22T02:38:31;8.95;;;8.05;;
22904;SDS011;11619;50.140;8.518;2023-06-22T02:40:59;8.95;;;8.05;;
22904;SDS011;11619;50.140;8.518;2023-06-22T02:43:26;9.32;;;8.38;;
22904;SDS011;11619;50.140;8.518;2023-06-22T02:45:52;8.23;;;7.53;;
22904;SDS011;11619;50.140;8.518;2023-06-22T02:48:19;9.52;;;8.68;;
22904;SDS011;11619;50.140;8.518;2023-06-22T02:50:45;8.90;;;8.05;;
22904;SDS011;11619;50.140;8.518;2023-06-22T02:53:12;9.10;;;8.30;;
22904;SDS011;11619;50.140;8.518;2023-06-22T02:55:38;9.70;;;8.65;;
22904;SDS011;11619;50.140;8.518;2023-06-22T02:58:07;8.20;;;7.50;;
22904;SDS011;11619;50.140;8.518;2023-06-22T03:00:33;9.20;;;8.32;;
22904;SDS011;11619;50.140;8.518;2023-06-22T03:03:00;9.30;;;8.40;;
22904;SDS011;11619;50.140;8.518;2023-06-22T03:05:26;8.55;;;7.75;;
22904;SDS011;11619;50.140;8.518;2023-06-22T03:07:53;8.07;;;7.35;;
22904;SDS011;11619;50.140;8.518;2023-06-22T03:10:19;8.43;;;7.72;;
22904;SDS011;11619;50.140;8.518;2023-06-22T03:12:46;8.05;;;7.35;;
22904;SDS011;11619;50.140;8.518;2023-06-22T03:15:12;7.65;;;7.05;;
22904;SDS011;11619;50.140;8.518;2023-06-22T03:17:40;8.95;;;8.23;;
22904;SDS011;11619;50.140;8.518;2023-06-22T03:20:08;8.60;;;7.88;;
22904;SDS011;11619;50.140;8.518;2023-06-22T03:22:37;8.82;;;8.07;;
22904;SDS011;11619;50.140;8.518;2023-06-22T03:25:04;8.82;;;8.07;;
22904;SDS011;11619;50.140;8.518;2023-06-22T03:27:36;9.05;;;8.13;;
22904;SDS011;11619;50.140;8.518;2023-06-22T03:30:03;8.13;;;7.30;;
22904;SDS011;11619;50.140;8.518;2023-06-22T03:32:29;8.50;;;7.75;;
22904;SDS011;11619;50.140;8.518;2023-06-22T03:34:56;8.00;;;7.30;;
22904;SDS011;11619;50.140;8.518;2023-06-22T03:37:25;8.35;;;7.65;;
22904;SDS011;11619;50.140;8.518;2023-06-22T03:39:52;8.38;;;7.57;;
22904;SDS011;11619;50.140;8.518;2023-06-22T03:42:18;8.63;;;7.82;;
22904;SDS011;11619;50.140;8.518;2023-06-22T03:44:45;9.32;;;8.43;;
22904;SDS011;11619;50.140;8.518;2023-06-22T03:47:12;8.95;;;8.15;;
22904;SDS011;11619;50.140;8.518;2023-06-22T03:49:38;8.32;;;7.53;;
22904;SDS011;11619;50.140;8.518;2023-06-22T03:52:05;9.32;;;8.43;;
22904;SDS011;11619;50.140;8.518;2023-06-22T03:54:31;8.82;;;8.02;;
22904;SDS011;11619;50.140;8.518;2023-06-22T03:56:58;8.60;;;7.78;;
22904;SDS011;11619;50.140;8.518;2023-06-22T03:59:24;9.27;;;8.18;;
22904;SDS011;11619;50.140;8.518;2023-06-22T04:01:51;8.30;;;7.50;;
22904;SDS011;11619;50.140;8.518;2023-06-22T04:04:17;10.23;;;8.40;;
22904;SDS011;11619;50.140;8.518;2023-06-22T04:06:44;9.93;;;7.85;;
22904;SDS011;11619;50.140;8.518;2023-06-22T04:09:11;8.32;;;7.47;;
22904;SDS011;11619;50.140;8.518;2023-06-22T04:11:38;12.98;;;8.27;;
22904;SDS011;11619;50.140;8.518;2023-06-22T04:14:04;8.88;;;7.95;;
22904;SDS011;11619;50.140;8.518;2023-06-22T04:16:30;8.70;;;7.75;;
22904;SDS011;11619;50.140;8.518;2023-06-22T04:18:57;10.45;;;8.00;;
22904;SDS011;11619;50.140;8.518;2023-06-22T04:21:23;9.38;;;7.88;;
22904;SDS011;11619;50.140;8.518;2023-06-22T04:23:50;9.30;;;7.80;;
22904;SDS011;11619;50.140;8.518;2023-06-22T04:26:16;8.48;;;7.07;;
22904;SDS011;11619;50.140;8.518;2023-06-22T04:28:43;9.60;;;7.40;;
22904;SDS011;11619;50.140;8.518;2023-06-22T04:31:09;10.18;;;7.97;;
22904;SDS011;11619;50.140;8.518;2023-06-22T04:33:36;8.68;;;7.22;;
22904;SDS011;11619;50.140;8.518;2023-06-22T04:36:04;8.85;;;7.10;;
22904;SDS011;11619;50.140;8.518;2023-06-22T04:38:30;11.35;;;8.40;;
22904;SDS011;11619;50.140;8.518;2023-06-22T04:40:59;8.25;;;6.30;;
22904;SDS011;11619;50.140;8.518;2023-06-22T04:43:29;8.50;;;7.70;;
22904;SDS011;11619;50.140;8.518;2023-06-22T04:45:57;10.32;;;7.72;;
22904;SDS011;11619;50.140;8.518;2023-06-22T04:48:29;9.35;;;7.55;;
22904;SDS011;11619;50.140;8.518;2023-06-22T04:50:59;11.32;;;7.90;;
22904;SDS011;11619;50.140;8.518;2023-06-22T04:53:30;9.10;;;8.20;;
22904;SDS011;11619;50.140;8.518;2023-06-22T04:55:57;12.50;;;8.40;;
22904;SDS011;11619;50.140;8.518;2023-06-22T04:58:23;8.65;;;7.05;;
22904;SDS011;11619;50.140;8.518;2023-06-22T05:00:53;9.77;;;7.53;;
22904;SDS011;11619;50.140;8.518;2023-06-22T05:03:19;7.57;;;6.75;;
22904;SDS011;11619;50.140;8.518;2023-06-22T05:05:46;10.57;;;7.65;;
22904;SDS011;11619;50.140;8.518;2023-06-22T05:08:13;7.85;;;7.05;;
22904;SDS011;11619;50.140;8.518;2023-06-22T05:10:39;7.60;;;7.00;;
22904;SDS011;11619;50.140;8.518;2023-06-22T05:13:24;8.00;;;7.20;;
22904;SDS011;11619;50.140;8.518;2023-06-22T05:15:52;11.55;;;7.43;;
22904;SDS011;11619;50.140;8.518;2023-06-22T05:18:19;9.25;;;7.90;;
22904;SDS011;11619;50.140;8.518;2023-06-22T05:20:50;8.15;;;7.35;;
22904;SDS011;11619;50.140;8.518;2023-06-22T05:23:16;8.40;;;7.22;;
22904;SDS011;11619;50.140;8.518;2023-06-22T05:25:43;13.02;;;7.65;;
22904;SDS011;11619;50.140;8.518;2023-06-22T05:28:27;8.80;;;8.00;;
22904;SDS011;11619;50.140;8.518;2023-06-22T05:30:53;9.07;;;8.27;;
22904;SDS011;11619;50.140;8.518;2023-06-22T05:33:37;9.80;;;7.95;;
22904;SDS011;11619;50.140;8.518;2023-06-22T05:36:04;9.25;;;8.25;;
22904;SDS011;11619;50.140;8.518;2023-06-22T05:38:31;8.35;;;7.55;;
22904;SDS011;11619;50.140;8.518;2023-06-22T05:40:57;8.95;;;8.10;;
22904;SDS011;11619;50.140;8.518;2023-06-22T05:43:24;9.00;;;8.10;;
22904;SDS011;11619;50.140;8.518;2023-06-22T05:45:50;9.73;;;8.85;;
22904;SDS011;11619;50.140;8.518;2023-06-22T05:48:17;9.32;;;8.43;;
22904;SDS011;11619;50.140;8.518;2023-06-22T05:50:43;8.45;;;7.65;;
22904;SDS011;11619;50.140;8.518;2023-06-22T05:53:10;10.85;;;8.65;;
22904;SDS011;11619;50.140;8.518;2023-06-22T05:55:36;9.80;;;8.77;;
22904;SDS011;11619;50.140;8.518;2023-06-22T05:58:03;8.95;;;8.15;;
22904;SDS011;11619;50.140;8.518;2023-06-22T06:00:30;9.15;;;8.25;;
22904;SDS011;11619;50.140;8.518;2023-06-22T06:02:57;10.32;;;8.27;;
22904;SDS011;11619;50.140;8.518;2023-06-22T06:05:30;9.23;;;8.43;;
22904;SDS011;11619;50.140;8.518;2023-06-22T06:07:57;9.07;;;8.23;;
22904;SDS011;11619;50.140;8.518;2023-06-22T06:10:24;11.05;;;9.02;;
22904;SDS011;11619;50.140;8.518;2023-06-22T06:12:52;9.32;;;8.30;;
22904;SDS011;11619;50.140;8.518;2023-06-22T06:15:18;9.60;;;7.93;;
22904;SDS011;11619;50.140;8.518;2023-06-22T06:17:45;8.98;;;8.07;;
22904;SDS011;11619;50.140;8.518;2023-06-22T06:20:19;8.50;;;7.80;;
22904;SDS011;11619;50.140;8.518;2023-06-22T06:22:47;9.80;;;8.40;;
22904;SDS011;11619;50.140;8.518;2023-06-22T06:25:14;9.02;;;8.20;;
22904;SDS011;11619;50.140;8.518;2023-06-22T06:27:46;10.45;;;8.05;;
22904;SDS011;11619;50.140;8.518;2023-06-22T06:30:13;9.35;;;8.45;;
22904;SDS011;11619;50.140;8.518;2023-06-22T06:32:41;9.13;;;8.32;;
22904;SDS011;11619;50.140;8.518;2023-06-22T06:35:08;9.85;;;8.77;;
22904;SDS011;11619;50.140;8.518;2023-06-22T06:37:36;10.52;;;8.50;;
22904;SDS011;11619;50.140;8.518;2023-06-22T06:40:04;8.70;;;7.97;;
22904;SDS011;11619;50.140;8.518;2023-06-22T06:42:37;10.10;;;8.48;;
22904;SDS011;11619;50.140;8.518;2023-06-22T06:45:08;9.52;;;8.57;;
22904;SDS011;11619;50.140;8.518;2023-06-22T06:47:35;8.75;;;7.85;;
22904;SDS011;11619;50.140;8.518;2023-06-22T06:50:02;8.98;;;8.25;;
22904;SDS011;11619;50.140;8.518;2023-06-22T06:52:28;9.60;;;8.60;;
22904;SDS011;11619;50.140;8.518;2023-06-22T06:54:55;9.50;;;8.48;;
22904;SDS011;11619;50.140;8.518;2023-06-22T06:57:21;10.32;;;8.23;;
22904;SDS011;11619;50.140;8.518;2023-06-22T06:59:48;9.07;;;8.27;;
22904;SDS011;11619;50.140;8.518;2023-06-22T07:02:17;9.55;;;8.55;;
22904;SDS011;11619;50.140;8.518;2023-06-22T07:04:43;8.93;;;7.53;;
22904;SDS011;11619;50.140;8.518;2023-06-22T07:07:10;9.00;;;8.13;;
22904;SDS011;11619;50.140;8.518;2023-06-22T07:09:37;8.43;;;7.60;;
22904;SDS011;11619;50.140;8.518;2023-06-22T07:12:03;9.07;;;8.18;;
22904;SDS011;11619;50.140;8.518;2023-06-22T07:14:30;8.82;;;7.93;;
22904;SDS011;11619;50.140;8.518;2023-06-22T07:16:57;10.45;;;8.27;;
22904;SDS011;11619;50.140;8.518;2023-06-22T07:19:25;8.20;;;7.50;;
22904;SDS011;11619;50.140;8.518;2023-06-22T07:21:53;10.38;;;8.40;;
22904;SDS011;11619;50.140;8.518;2023-06-22T07:24:22;8.75;;;7.95;;
22904;SDS011;11619;50.140;8.518;2023-06-22T07:26:49;8.45;;;7.60;;
22904;SDS011;11619;50.140;8.518;2023-06-22T07:29:19;8.45;;;7.70;;
22904;SDS011;11619;50.140;8.518;2023-06-22T07:31:47;9.52;;;8.57;;
22904;SDS011;11619;50.140;8.518;2023-06-22T07:34:13;9.23;;;8.38;;
22904;SDS011;11619;50.140;8.518;2023-06-22T07:36:40;9.93;;;8.48;;
22904;SDS011;11619;50.140;8.518;2023-06-22T07:39:06;8.57;;;7.78;;
22904;SDS011;11619;50.140;8.518;2023-06-22T07:41:33;10.02;;;8.75;;
22904;SDS011;11619;50.140;8.518;2023-06-22T07:43:59;8.60;;;7.90;;
22904;SDS011;11619;50.140;8.518;2023-06-22T07:46:25;8.52;;;7.72;;
22904;SDS011;11619;50.140;8.518;2023-06-22T07:48:52;9.75;;;8.90;;
22904;SDS011;11619;50.140;8.518;2023-06-22T07:51:21;9.05;;;8.15;;
22904;SDS011;11619;50.140;8.518;2023-06-22T07:53:48;9.73;;;8.73;;
22904;SDS011;11619;50.140;8.518;2023-06-22T07:56:15;10.18;;;8.10;;
22904;SDS011;11619;50.140;8.518;2023-06-22T07:58:45;8.68;;;8.02;;
22904;SDS011;11619;50.140;8.518;2023-06-22T08:01:12;10.65;;;9.15;;
22904;SDS011;11619;50.140;8.518;2023-06-22T08:03:42;10.45;;;8.38;;
22904;SDS011;11619;50.140;8.518;2023-06-22T08:06:09;9.32;;;8.43;;
22904;SDS011;11619;50.140;8.518;2023-06-22T08:08:36;9.45;;;8.55;;
22904;SDS011;11619;50.140;8.518;2023-06-22T08:11:02;11.38;;;8.57;;
22904;SDS011;11619;50.140;8.518;2023-06-22T08:13:29;11.88;;;9.57;;
22904;SDS011;11619;50.140;8.518;2023-06-22T08:15:56;9.88;;;8.88;;
22904;SDS011;11619;50.140;8.518;2023-06-22T08:18:22;10.50;;;9.45;;
22904;SDS011;11619;50.140;8.518;2023-06-22T08:20:49;10.25;;;8.82;;
22904;SDS011;11619;50.140;8.518;2023-06-22T08:23:15;10.50;;;8.77;;
22904;SDS011;11619;50.140;8.518;2023-06-22T08:25:42;12.63;;;9.30;;
22904;SDS011;11619;50.140;8.518;2023-06-22T08:28:08;9.27;;;8.48;;
22904;SDS011;11619;50.140;8.518;2023-06-22T08:30:35;9.23;;;8.43;;
22904;SDS011;11619;50.140;8.518;2023-06-22T08:33:03;9.48;;;8.60;;
22904;SDS011;11619;50.140;8.518;2023-06-22T08:35:29;9.40;;;8.45;;
22904;SDS011;11619;50.140;8.518;2023-06-22T08:37:56;10.75;;;9.35;;
22904;SDS011;11619;50.140;8.518;2023-06-22T08:40:24;9.88;;;8.88;;
22904;SDS011;11619;50.140;8.518;2023-06-22T08:42:50;9.80;;;8.90;;
22904;SDS011;11619;50.140;8.518;2023-06-22T08:45:17;10.18;;;8.52;;
22904;SDS011;11619;50.140;8.518;2023-06-22T08:47:44;10.13;;;9.05;;
22904;SDS011;11619;50.140;8.518;2023-06-22T08:50:10;10.20;;;9.18;;
22904;SDS011;11619;50.140;8.518;2023-06-22T08:52:37;9.55;;;8.65;;
22904;SDS011;11619;50.140;8.518;2023-06-22T08:55:07;9.52;;;8.45;;
22904;SDS011;11619;50.140;8.518;2023-06-22T08:57:35;10.27;;;9.27;;
22904;SDS011;11619;50.140;8.518;2023-06-22T09:00:07;9.80;;;8.90;;
22904;SDS011;11619;50.140;8.518;2023-06-22T09:02:43;9.35;;;8.48;;
22904;SDS011;11619;50.140;8.518;2023-06-22T09:05:10;9.80;;;8.88;;
22904;SDS011;11619;50.140;8.518;2023-06-22T09:07:37;11.65;;;9.73;;
22904;SDS011;11619;50.140;8.518;2023-06-22T09:10:04;8.95;;;8.15;;
22904;SDS011;11619;50.140;8.518;2023-06-22T09:12:31;10.88;;;8.82;;
22904;SDS011;11619;50.140;8.518;2023-06-22T09:14:59;10.75;;;9.68;;
22904;SDS011;11619;50.140;8.518;2023-06-22T09:17:26;12.50;;;10.60;;
22904;SDS011;11619;50.140;8.518;2023-06-22T09:19:53;9.98;;;8.93;;
22904;SDS011;11619;50.140;8.518;2023-06-22T09:22:20;9.70;;;8.65;;
22904;SDS011;11619;50.140;8.518;2023-06-22T09:24:47;9.85;;;8.95;;
22904;SDS011;11619;50.140;8.518;2023-06-22T09:27:13;9.98;;;8.95;;
22904;SDS011;11619;50.140;8.518;2023-06-22T09:29:41;9.90;;;8.90;;
22904;SDS011;11619;50.140;8.518;2023-06-22T09:32:07;10.15;;;8.63;;
22904;SDS011;11619;50.140;8.518;2023-06-22T09:34:34;9.30;;;8.50;;
22904;SDS011;11619;50.140;8.518;2023-06-22T09:37:00;9.40;;;8.60;;
22904;SDS011;11619;50.140;8.518;2023-06-22T09:39:27;9.38;;;8.50;;
22904;SDS011;11619;50.140;8.518;2023-06-22T09:41:53;9.20;;;8.43;;
22904;SDS011;11619;50.140;8.518;2023-06-22T09:44:20;9.55;;;8.85;;
22904;SDS011;11619;50.140;8.518;2023-06-22T09:46:46;9.85;;;9.05;;
22904;SDS011;11619;50.140;8.518;2023-06-22T09:49:16;10.38;;;9.38;;
22904;SDS011;11619;50.140;8.518;2023-06-22T09:51:42;10.13;;;9.15;;
22904;SDS011;11619;50.140;8.518;2023-06-22T09:54:09;9.80;;;8.80;;
22904;SDS011;11619;50.140;8.518;2023-06-22T09:56:35;9.82;;;8.95;;
22904;SDS011;11619;50.140;8.518;2023-06-22T09:59:03;10.15;;;9.32;;
22904;SDS011;11619;50.140;8.518;2023-06-22T10:01:44;9.75;;;8.93;;
22904;SDS011;11619;50.140;8.518;2023-06-22T10:04:10;9.65;;;8.68;;
22904;SDS011;11619;50.140;8.518;2023-06-22T10:06:37;9.27;;;8.38;;
22904;SDS011;11619;50.140;8.518;2023-06-22T10:09:07;9.20;;;8.40;;
22904;SDS011;11619;50.140;8.518;2023-06-22T10:11:34;10.00;;;9.10;;
22904;SDS011;11619;50.140;8.518;2023-06-22T10:14:01;11.18;;;8.88;;
22904;SDS011;11619;50.140;8.518;2023-06-22T10:16:31;9.70;;;8.90;;
22904;SDS011;11619;50.140;8.518;2023-06-22T10:18:58;10.02;;;9.13;;
22904;SDS011;11619;50.140;8.518;2023-06-22T10:21:24;9.50;;;8.48;;
22904;SDS011;11619;50.140;8.518;2023-06-22T10:23:53;9.32;;;8.43;;
22904;SDS011;11619;50.140;8.518;2023-06-22T10:26:19;10.40;;;8.40;;
22904;SDS011;11619;50.140;8.518;2023-06-22T10:28:46;9.40;;;8.45;;
22904;SDS011;11619;50.140;8.518;2023-06-22T10:31:12;10.10;;;9.07;;
22904;SDS011;11619;50.140;8.518;2023-06-22T10:33:39;10.02;;;9.13;;
22904;SDS011;11619;50.140;8.518;2023-06-22T10:36:07;9.30;;;8.38;;
22904;SDS011;11619;50.140;8.518;2023-06-22T10:38:34;10.10;;;8.80;;
22904;SDS011;11619;50.140;8.518;2023-06-22T10:41:00;8.93;;;8.23;;
22904;SDS011;11619;50.140;8.518;2023-06-22T10:43:26;8.98;;;8.18;;
22904;SDS011;11619;50.140;8.518;2023-06-22T10:45:53;10.27;;;8.55;;
22904;SDS011;11619;50.140;8.518;2023-06-22T10:48:19;8.27;;;7.63;;
22904;SDS011;11619;50.140;8.518;2023-06-22T10:50:47;9.40;;;7.18;;
22904;SDS011;11619;50.140;8.518;2023-06-22T10:53:14;7.95;;;7.15;;
22904;SDS011;11619;50.140;8.518;2023-06-22T10:55:40;11.25;;;7.18;;
22904;SDS011;11619;50.140;8.518;2023-06-22T10:58:21;7.93;;;7.22;;
22904;SDS011;11619;50.140;8.518;2023-06-22T11:00:48;7.55;;;6.82;;
22904;SDS011;11619;50.140;8.518;2023-06-22T11:03:14;8.70;;;7.13;;
22904;SDS011;11619;50.140;8.518;2023-06-22T11:05:41;7.40;;;6.78;;
22904;SDS011;11619;50.140;8.518;2023-06-22T11:08:08;7.80;;;7.00;;
22904;SDS011;11619;50.140;8.518;2023-06-22T11:10:34;7.78;;;6.80;;
22904;SDS011;11619;50.140;8.518;2023-06-22T11:13:03;7.72;;;6.80;;
22904;SDS011;11619;50.140;8.518;2023-06-22T11:15:31;9.63;;;6.75;;
22904;SDS011;11619;50.140;8.518;2023-06-22T11:17:58;8.05;;;7.25;;
22904;SDS011;11619;50.140;8.518;2023-06-22T11:20:24;7.03;;;6.38;;
22904;SDS011;11619;50.140;8.518;2023-06-22T11:22:54;7.53;;;6.70;;
22904;SDS011;11619;50.140;8.518;2023-06-22T11:25:21;8.13;;;6.63;;
22904;SDS011;11619;50.140;8.518;2023-06-22T11:27:48;8.18;;;7.47;;
22904;SDS011;11619;50.140;8.518;2023-06-22T11:30:14;8.23;;;6.85;;
22904;SDS011;11619;50.140;8.518;2023-06-22T11:32:41;8.43;;;6.63;;
22904;SDS011;11619;50.140;8.518;2023-06-22T11:35:09;8.65;;;6.50;;
22904;SDS011;11619;50.140;8.518;2023-06-22T11:37:35;8.27;;;7.07;;
22904;SDS011;11619;50.140;8.518;2023-06-22T11:40:02;8.45;;;6.95;;
22904;SDS011;11619;50.140;8.518;2023-06-22T11:42:33;10.40;;;6.78;;
22904;SDS011;11619;50.140;8.518;2023-06-22T11:45:00;12.55;;;6.88;;
22904;SDS011;11619;50.140;8.518;2023-06-22T11:47:26;10.23;;;7.05;;
22904;SDS011;11619;50.140;8.518;2023-06-22T11:49:53;9.40;;;7.43;;
22904;SDS011;11619;50.140;8.518;2023-06-22T11:52:19;8.85;;;7.25;;
22904;SDS011;11619;50.140;8.518;2023-06-22T11:54:46;12.52;;;7.18;;
22904;SDS011;11619;50.140;8.518;2023-06-22T11:57:12;9.05;;;6.72;;
22904;SDS011;11619;50.140;8.518;2023-06-22T11:59:39;7.25;;;6.63;;
22904;SDS011;11619;50.140;8.518;2023-06-22T12:02:05;8.88;;;6.72;;
22904;SDS011;11619;50.140;8.518;2023-06-22T12:04:33;7.47;;;6.85;;
22904;SDS011;11619;50.140;8.518;2023-06-22T12:07:00;10.85;;;6.97;;
22904;SDS011;11619;50.140;8.518;2023-06-22T12:09:26;7.72;;;6.93;;
22904;SDS011;11619;50.140;8.518;2023-06-22T12:11:53;11.80;;;7.45;;
22904;SDS011;11619;50.140;8.518;2023-06-22T12:14:19;11.35;;;6.97;;
22904;SDS011;11619;50.140;8.518;2023-06-22T12:16:46;7.72;;;6.88;;
22904;SDS011;11619;50.140;8.518;2023-06-22T12:19:12;8.45;;;6.55;;
22904;SDS011;11619;50.140;8.518;2023-06-22T12:21:38;11.77;;;7.22;;
22904;SDS011;11619;50.140;8.518;2023-06-22T12:24:06;9.68;;;7.03;;
22904;SDS011;11619;50.140;8.518;2023-06-22T12:26:33;8.48;;;7.03;;
22904;SDS011;11619;50.140;8.518;2023-06-22T12:28:59;7.70;;;6.90;;
22904;SDS011;11619;50.140;8.518;2023-06-22T12:31:26;8.20;;;7.22;;
22904;SDS011;11619;50.140;8.518;2023-06-22T12:33:52;8.50;;;7.32;;
22904;SDS011;11619;50.140;8.518;2023-06-22T12:36:19;9.80;;;7.30;;
22904;SDS011;11619;50.140;8.518;2023-06-22T12:38:45;12.95;;;6.63;;
22904;SDS011;11619;50.140;8.518;2023-06-22T12:41:12;11.27;;;7.10;;
22904;SDS011;11619;50.140;8.518;2023-06-22T12:43:40;13.05;;;7.05;;
22904;SDS011;11619;50.140;8.518;2023-06-22T12:46:06;8.30;;;7.43;;
22904;SDS011;11619;50.140;8.518;2023-06-22T12:48:33;12.18;;;7.68;;
22904;SDS011;11619;50.140;8.518;2023-06-22T12:51:00;10.52;;;7.20;;
22904;SDS011;11619;50.140;8.518;2023-06-22T12:53:26;12.68;;;6.68;;
22904;SDS011;11619;50.140;8.518;2023-06-22T12:55:55;11.30;;;7.22;;
22904;SDS011;11619;50.140;8.518;2023-06-22T12:58:21;11.65;;;6.85;;
22904;SDS011;11619;50.140;8.518;2023-06-22T13:00:48;8.25;;;6.57;;
22904;SDS011;11619;50.140;8.518;2023-06-22T13:03:14;12.95;;;6.43;;
22904;SDS011;11619;50.140;8.518;2023-06-22T13:05:41;13.10;;;7.38;;
22904;SDS011;11619;50.140;8.518;2023-06-22T13:08:07;9.27;;;7.07;;
22904;SDS011;11619;50.140;8.518;2023-06-22T13:10:38;13.27;;;7.32;;
22904;SDS011;11619;50.140;8.518;2023-06-22T13:13:04;9.95;;;6.97;;
22904;SDS011;11619;50.140;8.518;2023-06-22T13:15:31;10.00;;;7.32;;
22904;SDS011;11619;50.140;8.518;2023-06-22T13:17:58;14.07;;;7.22;;
22904;SDS011;11619;50.140;8.518;2023-06-22T13:20:24;10.10;;;7.38;;
22904;SDS011;11619;50.140;8.518;2023-06-22T13:22:51;11.27;;;7.45;;
22904;SDS011;11619;50.140;8.518;2023-06-22T13:25:17;10.07;;;7.38;;
22904;SDS011;11619;50.140;8.518;2023-06-22T13:27:45;10.25;;;7.97;;
22904;SDS011;11619;50.140;8.518;2023-06-22T13:30:12;13.10;;;7.82;;
22904;SDS011;11619;50.140;8.518;2023-06-22T13:35:23;12.23;;;7.57;;
22904;SDS011;11619;50.140;8.518;2023-06-22T13:38:07;12.05;;;8.13;;
22904;SDS011;11619;50.140;8.518;2023-06-22T13:40:51;9.85;;;7.97;;
22904;SDS011;11619;50.140;8.518;2023-06-22T13:43:35;11.23;;;7.90;;
22904;SDS011;11619;50.140;8.518;2023-06-22T13:46:02;10.30;;;7.68;;
22904;SDS011;11619;50.140;8.518;2023-06-22T13:48:45;8.60;;;7.32;;
22904;SDS011;11619;50.140;8.518;2023-06-22T13:51:12;12.35;;;8.80;;
22904;SDS011;11619;50.140;8.518;2023-06-22T13:53:38;10.18;;;7.47;;
22904;SDS011;11619;50.140;8.518;2023-06-22T13:56:04;8.18;;;7.40;;
22904;SDS011;11619;50.140;8.518;2023-06-22T13:58:31;10.68;;;7.68;;
22904;SDS011;11619;50.140;8.518;2023-06-22T14:00:57;10.13;;;8.30;;
22904;SDS011;11619;50.140;8.518;2023-06-22T14:03:24;11.30;;;8.13;;
22904;SDS011;11619;50.140;8.518;2023-06-22T14:05:51;8.48;;;7.70;;
22904;SDS011;11619;50.140;8.518;2023-06-22T14:08:20;15.65;;;8.25;;
22904;SDS011;11619;50.140;8.518;2023-06-22T14:11:06;10.90;;;8.15;;
22904;SDS011;11619;50.140;8.518;2023-06-22T14:13:33;10.18;;;7.57;;
22904;SDS011;11619;50.140;8.518;2023-06-22T14:15:59;8.77;;;7.97;;
22904;SDS011;11619;50.140;8.518;2023-06-22T14:18:25;11.20;;;7.90;;
22904;SDS011;11619;50.140;8.518;2023-06-22T14:20:52;10.90;;;7.90;;
22904;SDS011;11619;50.140;8.518;2023-06-22T14:23:18;14.77;;;7.80;;
22904;SDS011;11619;50.140;8.518;2023-06-22T14:25:45;9.65;;;7.28;;
22904;SDS011;11619;50.140;8.518;2023-06-22T14:28:11;9.20;;;7.63;;
22904;SDS011;11619;50.140;8.518;2023-06-22T14:30:40;10.82;;;7.43;;
22904;SDS011;11619;50.140;8.518;2023-06-22T14:33:06;9.77;;;6.75;;
22904;SDS011;11619;50.140;8.518;2023-06-22T14:35:33;8.02;;;7.15;;
22904;SDS011;11619;50.140;8.518;2023-06-22T14:37:59;10.27;;;6.40;;
22904;SDS011;11619;50.140;8.518;2023-06-22T14:40:26;12.98;;;5.82;;
22904;SDS011;11619;50.140;8.518;2023-06-22T14:42:54;18.30;;;5.88;;
22904;SDS011;11619;50.140;8.518;2023-06-22T14:45:23;16.50;;;5.25;;
22904;SDS011;11619;50.140;8.518;2023-06-22T14:47:49;15.40;;;5.70;;
22904;SDS011;11619;50.140;8.518;2023-06-22T14:50:16;8.93;;;5.63;;
22904;SDS011;11619;50.140;8.518;2023-06-22T14:52:43;11.65;;;5.47;;